Time;durP1;ratioP1;P1;durP2;ratioP2;P2;SDS_P1;SDS_P2;PMS_P1;PMS_P2;Temp;Humidity;BMP_temperature;BMP_pressure;BME280_temperature;BME280_humidity;BME280_pressure;Samples;Min_cycle;Max_cycle;Signal;HPM_P1;HPM_P2
2023/10/10 00:01:10;;;;;;;5.95;2.33;;;;;;;4.93;66.44;100476.23;1698463;83;21516;-77
2023/10/10 00:03:45;;;;;;;6.30;2.37;;;;;;;4.93;66.50;100472.66;1698077;84;21075;-76
2023/10/10 00:06:18;;;;;;;4.62;2.12;;;;;;;4.96;66.62;100472.34;1698147;84;21078;-77
2023/10/10 00:08:44;;;;;;;5.60;2.10;;;;;;;4.98;66.64;100464.37;1697671;84;21094;-76
2023/10/10 00:11:15;;;;;;;6.28;2.40;;;;;;;5.01;66.61;100461.85;1698203;84;21015;-77
2023/10/10 00:13:46;;;;;;;7.47;2.20;;;;;;;5.03;66.58;100470.19;1698185;84;21043;-76
2023/10/10 00:16:35;;;;;;;5.47;2.55;;;;;;;5.05;66.63;100464.59;1698447;83;21062;-75
2023/10/10 00:19:08;;;;;;;5.60;2.50;;;;;;;5.06;66.55;100459.50;1697428;83;21573;-76
2023/10/10 00:21:29;;;;;;;6.22;2.75;;;;;;;5.07;66.48;100459.34;1696944;84;21047;-76
2023/10/10 00:23:59;;;;;;;4.83;2.35;;;;;;;5.07;66.41;100466.13;1698238;84;21102;-75
2023/10/10 00:26:29;;;;;;;5.22;2.52;;;;;;;5.09;66.37;100472.77;1698367;84;21294;-77
2023/10/10 00:28:58;;;;;;;5.45;2.37;;;;;;;5.09;66.36;100470.90;1698063;83;21114;-75
2023/10/10 00:31:29;;;;;;;5.55;2.52;;;;;;;5.10;66.32;100466.32;1698285;84;21067;-76
2023/10/10 00:33:59;;;;;;;5.25;2.37;;;;;;;5.11;66.27;100466.66;1698091;83;21070;-76
2023/10/10 00:39:22;;;;;;;6.55;2.00;;;;;;;5.13;66.20;100468.72;1698299;84;21054;-76
2023/10/10 00:41:51;;;;;;;5.90;2.20;;;;;;;5.10;66.18;100470.39;1696029;84;21126;-75
2023/10/10 00:44:21;;;;;;;8.68;2.95;;;;;;;5.08;66.24;100469.70;1697674;83;21047;-76
2023/10/10 00:46:47;;;;;;;5.28;2.22;;;;;;;5.04;66.31;100469.17;1697432;84;21039;-75
2023/10/10 00:49:23;;;;;;;6.17;2.35;;;;;;;5.04;66.37;100469.67;1673249;84;21050;-75
2023/10/10 00:51:56;;;;;;;6.08;2.20;;;;;;;5.05;66.39;100470.02;1698092;83;21078;-76
2023/10/10 00:54:26;;;;;;;7.80;2.40;;;;;;;5.06;66.36;100466.30;1693611;84;21051;-75
2023/10/10 00:56:56;;;;;;;4.80;2.17;;;;;;;5.06;66.29;100460.36;1690926;84;21070;-77
2023/10/10 00:59:34;;;;;;;5.25;2.20;;;;;;;5.06;66.25;100464.94;1691101;85;21520;-76
2023/10/10 01:01:58;;;;;;;7.08;2.87;;;;;;;5.03;66.29;100463.90;1690118;85;21027;-76
2023/10/10 01:04:48;;;;;;;3.60;2.05;;;;;;;5.01;66.27;100464.56;1690811;84;21083;-75
2023/10/10 01:07:10;;;;;;;5.28;2.10;;;;;;;4.98;66.32;100467.09;1667866;85;21075;-77
2023/10/10 01:09:52;;;;;;;7.35;2.25;;;;;;;4.95;66.35;100466.56;1691266;85;21066;-76
2023/10/10 01:12:13;;;;;;;5.08;2.33;;;;;;;4.97;66.40;100471.33;1689828;84;21054;-76
2023/10/10 01:14:43;;;;;;;4.97;2.17;;;;;;;4.98;66.45;100464.89;1690905;85;21423;-76
2023/10/10 01:17:12;;;;;;;5.10;2.20;;;;;;;5.01;66.41;100470.00;1691349;84;21079;-77
2023/10/10 01:19:48;;;;;;;5.80;2.22;;;;;;;5.01;66.37;100471.36;1690980;84;21063;-76
2023/10/10 01:22:22;;;;;;;5.12;2.50;;;;;;;5.02;66.33;100467.63;1690352;85;21451;-76
2023/10/10 01:24:42;;;;;;;5.33;2.25;;;;;;;5.00;66.32;100473.72;1689839;84;21055;-76
2023/10/10 01:27:16;;;;;;;4.70;2.33;;;;;;;5.01;66.37;100482.22;1691302;84;21023;-75
2023/10/10 01:29:50;;;;;;;5.20;2.47;;;;;;;5.01;66.31;100480.86;1690987;84;21110;-76
2023/10/10 01:32:17;;;;;;;8.20;2.40;;;;;;;4.99;66.34;100478.81;1690720;85;21075;-74
2023/10/10 01:34:46;;;;;;;6.35;2.72;;;;;;;4.98;66.26;100485.25;1691084;85;21039;-76
2023/10/10 01:37:20;;;;;;;5.37;2.65;;;;;;;4.96;66.24;100478.63;1690964;85;21037;-76
2023/10/10 01:40:12;;;;;;;7.87;2.40;;;;;;;4.93;66.32;100482.16;1690528;84;21028;-76
2023/10/10 01:42:44;;;;;;;7.15;2.62;;;;;;;4.87;66.40;100497.23;1686613;85;21032;-75
2023/10/10 01:45:17;;;;;;;7.47;2.50;;;;;;;4.86;66.62;100497.38;1689401;84;21122;-76
2023/10/10 01:47:41;;;;;;;6.17;2.50;;;;;;;4.82;66.77;100498.20;1689703;85;21569;-76
2023/10/10 01:50:14;;;;;;;5.22;2.37;;;;;;;4.80;66.85;100488.52;1691152;84;21075;-76
2023/10/10 01:52:46;;;;;;;4.62;2.25;;;;;;;4.80;66.91;100493.44;1690957;84;21463;-75
2023/10/10 01:55:11;;;;;;;7.40;2.75;;;;;;;4.73;66.99;100494.58;1690476;84;21071;-74
2023/10/10 01:57:40;;;;;;;8.08;3.22;;;;;;;4.68;67.17;100493.34;1691036;85;21470;-76
2023/10/10 02:02:57;;;;;;;8.38;2.95;;;;;;;4.53;67.62;100479.46;1691015;85;21071;-75
2023/10/10 02:05:51;;;;;;;5.90;3.00;;;;;;;4.50;67.75;100482.99;1691174;85;21023;-75
2023/10/10 02:07:57;;;;;;;6.75;3.05;;;;;;;4.44;67.88;100489.39;1680034;85;21048;-75
2023/10/10 02:10:29;;;;;;;5.30;2.77;;;;;;;4.41;67.99;100490.20;1690976;85;21035;-75
2023/10/10 02:12:59;;;;;;;5.72;2.72;;;;;;;4.38;68.11;100494.08;1690944;85;21075;-76
2023/10/10 02:15:32;;;;;;;6.10;2.80;;;;;;;4.37;68.36;100482.03;1690845;85;21150;-76
2023/10/10 02:18:04;;;;;;;7.35;3.12;;;;;;;4.36;68.46;100486.61;1690779;84;21040;-75
2023/10/10 02:23:09;;;;;;;6.30;3.08;;;;;;;4.28;68.53;100481.61;1690956;85;21122;-76
2023/10/10 02:28:02;;;;;;;6.25;3.00;;;;;;;4.22;68.86;100485.80;1690852;85;21475;-74
2023/10/10 02:30:37;;;;;;;6.53;2.72;;;;;;;4.19;68.91;100483.39;1690505;84;21059;-76
2023/10/10 02:33:16;;;;;;;7.40;3.62;;;;;;;4.16;69.03;100485.56;1691019;85;21142;-76
2023/10/10 02:35:54;;;;;;;6.65;2.70;;;;;;;4.14;69.15;100482.50;1691071;85;21103;-76
2023/10/10 02:38:35;;;;;;;6.90;2.67;;;;;;;4.11;69.14;100482.81;1691075;85;21082;-75
2023/10/10 02:41:25;;;;;;;6.47;2.92;;;;;;;4.10;69.32;100480.25;1691188;84;21046;-76
2023/10/10 02:44:09;;;;;;;7.40;2.90;;;;;;;4.07;69.43;100480.06;1690826;85;21007;-76
2023/10/10 02:46:41;;;;;;;6.65;3.12;;;;;;;4.04;69.62;100480.87;1691101;84;21052;-76
2023/10/10 02:49:30;;;;;;;7.87;3.05;;;;;;;3.99;69.69;100475.91;1690968;85;21031;-76
2023/10/10 02:51:57;;;;;;;7.60;3.42;;;;;;;3.95;69.89;100481.29;1690447;85;21120;-75
2023/10/10 02:57:27;;;;;;;6.55;3.12;;;;;;;3.98;70.03;100482.34;1663527;85;21046;-75
2023/10/10 02:59:43;;;;;;;5.60;3.00;;;;;;;4.01;70.02;100475.25;1690858;85;21119;-75
2023/10/10 03:02:16;;;;;;;6.30;3.22;;;;;;;4.02;69.92;100479.67;1692103;83;21095;-75
2023/10/10 03:07:29;;;;;;;7.67;3.50;;;;;;;3.97;69.95;100479.78;1635694;86;21058;-77
2023/10/10 03:12:43;;;;;;;7.17;3.17;;;;;;;3.92;70.05;100475.32;1663568;86;21034;-75
2023/10/10 03:15:13;;;;;;;7.28;3.22;;;;;;;3.88;70.05;100470.67;1692100;85;21455;-75
2023/10/10 03:25:54;;;;;;;11.75;3.85;;;;;;;3.79;70.35;100492.77;1692419;84;21047;-75
2023/10/10 03:28:30;;;;;;;8.85;3.87;;;;;;;3.81;70.46;100481.27;1692129;84;21047;-75
2023/10/10 03:33:43;;;;;;;9.33;3.35;;;;;;;3.79;70.33;100484.64;1692237;85;21039;-78
2023/10/10 03:36:23;;;;;;;12.98;4.70;;;;;;;3.80;70.47;100487.70;1691983;84;21003;-76
2023/10/10 05:24:26;;;;;;;8.25;3.25;;;;;;;4.20;68.99;100547.97;1692309;85;21117;-75
2023/10/10 05:26:56;;;;;;;8.48;3.25;;;;;;;4.27;68.74;100549.92;1692087;85;21003;-74
2023/10/10 05:29:25;;;;;;;7.40;3.40;;;;;;;4.35;68.64;100550.50;1692030;83;21043;-77
2023/10/10 05:31:59;;;;;;;9.85;3.47;;;;;;;4.43;68.43;100563.64;1692212;85;21103;-76
2023/10/10 05:34:25;;;;;;;6.55;3.22;;;;;;;4.51;68.05;100561.52;1692285;84;21039;-78
2023/10/10 05:36:54;;;;;;;8.03;3.17;;;;;;;4.58;67.83;100555.85;1692272;85;21042;-76
2023/10/10 05:39:22;;;;;;;6.90;3.37;;;;;;;4.66;67.48;100558.64;1692146;85;21487;-75
2023/10/10 05:41:54;;;;;;;11.53;3.30;;;;;;;4.75;67.29;100560.92;1692145;85;21082;-76
2023/10/10 05:44:23;;;;;;;6.42;3.12;;;;;;;4.82;66.79;100555.21;1692322;85;21016;-74
2023/10/10 05:46:53;;;;;;;5.47;2.95;;;;;;;4.87;66.38;100558.81;1692368;83;21110;-75
2023/10/10 05:49:22;;;;;;;8.80;3.25;;;;;;;4.89;66.15;100563.08;1692079;85;21502;-76
2023/10/10 05:51:51;;;;;;;8.93;2.98;;;;;;;4.92;65.89;100557.84;1692404;85;21043;-76
2023/10/10 05:54:21;;;;;;;7.28;2.62;;;;;;;4.91;65.46;100561.56;1692380;85;21059;-76
2023/10/10 05:56:50;;;;;;;8.20;3.27;;;;;;;4.90;65.43;100559.35;1714809;83;21058;-75
2023/10/10 05:59:19;;;;;;;6.42;3.37;;;;;;;4.90;65.26;100559.35;1717754;83;21066;-74
2023/10/10 06:01:47;;;;;;;9.83;3.62;;;;;;;4.89;65.25;100569.87;1717580;83;21043;-76
2023/10/10 06:04:17;;;;;;;7.62;3.33;;;;;;;4.89;65.29;100571.22;1717679;83;21003;-76
2023/10/10 06:06:47;;;;;;;7.75;2.85;;;;;;;4.89;65.22;100577.16;1717839;83;21019;-76
2023/10/10 06:09:19;;;;;;;10.05;3.25;;;;;;;4.89;65.25;100573.08;1717619;83;21050;-77
2023/10/10 06:11:49;;;;;;;15.25;5.30;;;;;;;4.91;65.35;100569.70;1717488;83;21100;-76
2023/10/10 06:14:21;;;;;;;7.10;2.95;;;;;;;4.94;65.31;100580.25;1717646;83;21039;-74
2023/10/10 06:16:50;;;;;;;9.58;3.05;;;;;;;4.96;65.39;100585.02;1717505;83;21090;-75
2023/10/10 06:19:20;;;;;;;13.13;4.50;;;;;;;5.00;65.44;100588.63;1717676;83;21055;-75
2023/10/10 06:21:49;;;;;;;9.80;4.20;;;;;;;5.07;65.49;100596.99;1717493;83;21527;-76
2023/10/10 06:24:18;;;;;;;9.55;3.75;;;;;;;5.16;65.47;100593.33;1717551;83;21091;-76
2023/10/10 06:26:47;;;;;;;9.65;3.75;;;;;;;5.25;65.44;100592.92;1717729;83;21456;-76
2023/10/10 06:29:17;;;;;;;8.98;3.40;;;;;;;5.35;65.27;100593.16;1717727;83;21106;-76
2023/10/10 06:31:46;;;;;;;6.58;2.95;;;;;;;5.44;65.07;100598.14;1717606;83;21043;-76
2023/10/10 06:34:22;;;;;;;8.08;3.25;;;;;;;5.49;64.80;100594.95;1717691;83;21140;-75
2023/10/10 06:36:54;;;;;;;7.47;3.22;;;;;;;5.54;64.68;100602.11;1717631;83;21035;-74
2023/10/10 06:39:32;;;;;;;9.95;3.22;;;;;;;5.59;64.50;100610.64;1717622;83;21546;-76
2023/10/10 06:41:54;;;;;;;9.18;3.62;;;;;;;5.61;64.37;100614.90;1716190;83;21007;-76
2023/10/10 06:44:32;;;;;;;6.92;3.67;;;;;;;5.64;64.27;100619.16;1717674;83;21039;-76
2023/10/10 06:47:08;;;;;;;6.20;3.47;;;;;;;5.58;64.16;100619.80;1717598;83;21023;-76
2023/10/10 06:49:54;;;;;;;11.20;4.22;;;;;;;5.56;64.34;100621.33;1698156;83;21050;-75
2023/10/10 06:52:18;;;;;;;9.60;3.83;;;;;;;5.61;64.45;100623.56;1697215;83;21039;-76
2023/10/10 06:54:54;;;;;;;9.23;3.90;;;;;;;5.67;64.45;100617.48;1698264;83;21098;-76
2023/10/10 06:57:37;;;;;;;11.15;3.72;;;;;;;5.74;64.41;100621.26;1663958;84;21058;-77
2023/10/10 07:02:49;;;;;;;9.95;3.72;;;;;;;5.84;64.27;100615.20;1692293;83;21531;-77
2023/10/10 07:05:18;;;;;;;9.23;3.72;;;;;;;5.89;64.32;100608.83;1692281;83;21066;-76
2023/10/10 07:07:52;;;;;;;10.18;3.35;;;;;;;5.96;64.27;100603.09;1692227;84;21047;-77
2023/10/10 07:10:33;;;;;;;7.97;3.20;;;;;;;6.00;64.06;100603.61;1692137;84;21011;-77
2023/10/10 07:12:58;;;;;;;8.28;3.30;;;;;;;6.01;64.08;100599.87;1692014;84;21063;-78
2023/10/10 07:15:29;;;;;;;8.45;3.85;;;;;;;6.00;64.09;100600.38;1692451;84;21091;-77
2023/10/10 07:18:14;;;;;;;9.48;4.20;;;;;;;6.00;64.20;100601.74;1692283;84;21063;-77
2023/10/10 07:23:37;;;;;;;8.30;3.37;;;;;;;6.10;64.42;100607.05;1692363;85;21027;-76
2023/10/10 07:26:23;;;;;;;8.20;3.42;;;;;;;6.16;64.45;100608.27;1692404;83;21495;-76
2023/10/10 07:28:53;;;;;;;11.15;3.75;;;;;;;6.21;64.53;100600.46;1692245;85;21080;-76
2023/10/10 07:31:24;;;;;;;7.95;3.37;;;;;;;6.26;64.60;100596.73;1692322;85;21035;-76
2023/10/10 07:34:03;;;;;;;13.83;4.00;;;;;;;6.32;64.61;100598.80;1692219;84;21442;-76
2023/10/10 07:36:27;;;;;;;9.73;4.05;;;;;;;6.38;64.48;100593.20;1691984;83;21448;-77
2023/10/10 07:41:45;;;;;;;9.88;4.20;;;;;;;6.51;64.49;100599.05;1692460;85;21468;-76
2023/10/10 07:44:22;;;;;;;10.88;4.00;;;;;;;6.77;64.44;100595.69;1691978;84;21075;-64
2023/10/10 07:47:19;;;;;;;14.55;4.10;;;;;;;7.20;64.18;100600.50;1692150;84;21091;-63
2023/10/10 07:49:50;;;;;;;10.40;3.92;;;;;;;7.75;63.18;100595.12;1691777;84;21070;-63
2023/10/10 07:52:16;;;;;;;9.45;3.70;;;;;;;8.33;61.62;100593.05;1691881;84;21042;-63
2023/10/10 07:54:46;;;;;;;10.43;3.90;;;;;;;8.86;60.42;100594.48;1692304;84;21413;-64
2023/10/10 07:57:22;;;;;;;9.58;5.78;;;;;;;9.41;59.04;100600.20;1694945;83;21058;-63
2023/10/10 07:59:57;;;;;;;9.20;3.33;;;;;;;9.97;57.57;100588.88;1681505;84;21075;-63
2023/10/10 08:05:09;;;;;;;6.97;3.37;;;;;;;10.98;54.88;100584.77;1690765;85;21474;-62
2023/10/10 08:07:35;;;;;;;7.75;3.30;;;;;;;11.35;52.73;100586.41;1691693;84;21509;-63
2023/10/10 08:10:29;;;;;;;7.08;2.65;;;;;;;11.55;51.68;100581.07;1682398;85;21040;-63
2023/10/10 08:12:46;;;;;;;7.50;3.40;;;;;;;11.80;50.68;100586.16;1691022;83;21101;-62
2023/10/10 08:15:25;;;;;;;6.17;2.62;;;;;;;11.98;50.03;100586.48;1702603;83;21507;-62
2023/10/10 08:17:54;;;;;;;6.25;2.67;;;;;;;12.18;49.39;100597.05;1704296;84;21249;-64
2023/10/10 08:21:08;;;;;;;5.10;2.70;;;;;;;12.37;49.12;100600.98;1704198;83;21042;-63
2023/10/10 08:23:06;;;;;;;5.25;2.72;;;;;;;12.55;48.57;100599.89;1701539;83;21486;-70
2023/10/10 08:25:38;;;;;;;7.45;2.95;;;;;;;12.60;47.94;100598.75;1704437;84;21066;-72
2023/10/10 08:28:06;;;;;;;5.03;2.80;;;;;;;12.46;47.34;100598.91;1704155;84;21466;-70
2023/10/10 08:30:35;;;;;;;10.23;2.85;;;;;;;12.20;47.76;100606.47;1702141;83;21090;-72
2023/10/10 08:33:04;;;;;;;5.58;2.67;;;;;;;12.08;48.38;100597.95;1692182;83;21050;-70
2023/10/10 08:35:38;;;;;;;4.97;2.50;;;;;;;12.06;48.44;100600.05;1692053;83;21035;-70
2023/10/10 08:38:06;;;;;;;6.83;2.52;;;;;;;11.92;48.13;100592.78;1691942;85;21135;-70
2023/10/10 08:40:36;;;;;;;4.28;2.75;;;;;;;11.60;48.48;100596.41;1691878;85;21471;-70
2023/10/10 08:43:07;;;;;;;7.83;2.92;;;;;;;11.32;49.27;100603.26;1691925;85;21091;-71
2023/10/10 08:45:43;;;;;;;6.62;2.80;;;;;;;11.18;49.93;100612.94;1692077;85;21049;-72
2023/10/10 08:48:16;;;;;;;4.90;2.58;;;;;;;11.01;50.41;100603.57;1691942;85;21063;-69
2023/10/10 08:50:45;;;;;;;5.15;2.65;;;;;;;10.85;50.58;100610.67;1691991;85;21094;-72
2023/10/10 08:53:14;;;;;;;5.83;2.70;;;;;;;10.73;50.71;100608.12;1691904;83;21111;-69
2023/10/10 08:55:43;;;;;;;7.97;3.47;;;;;;;10.57;50.93;100615.20;1692048;83;21106;-70
2023/10/10 08:58:13;;;;;;;5.75;2.60;;;;;;;10.43;51.41;100612.30;1682327;85;21110;-68
2023/10/10 09:00:42;;;;;;;7.87;2.70;;;;;;;10.41;51.63;100623.97;1692248;85;21035;-68
2023/10/10 09:03:13;;;;;;;7.20;3.00;;;;;;;10.41;51.78;100627.23;1692124;84;21513;-70
2023/10/10 09:05:43;;;;;;;7.10;3.12;;;;;;;10.33;51.76;100625.41;1682728;84;21048;-69
2023/10/10 09:08:15;;;;;;;7.30;2.60;;;;;;;10.27;51.82;100617.96;1676069;85;21134;-70
2023/10/10 09:10:53;;;;;;;9.90;2.92;;;;;;;10.31;51.92;100622.02;1675843;85;21095;-70
2023/10/10 09:13:19;;;;;;;5.15;2.40;;;;;;;10.31;52.16;100615.69;1675779;84;21056;-68
2023/10/10 09:15:55;;;;;;;5.60;2.05;;;;;;;10.31;51.98;100618.43;1676175;85;21080;-69
2023/10/10 09:18:25;;;;;;;5.45;2.00;;;;;;;10.27;51.81;100616.59;1676067;85;21573;-68
2023/10/10 09:21:00;;;;;;;4.33;2.10;;;;;;;10.23;51.42;100615.80;1675893;85;21063;-67
2023/10/10 09:23:33;;;;;;;4.90;2.35;;;;;;;10.19;51.52;100611.19;1673654;85;21059;-68
2023/10/10 09:26:29;;;;;;;4.87;2.12;;;;;;;10.18;51.44;100614.96;1675907;85;21079;-67
2023/10/10 09:29:03;;;;;;;3.30;1.62;;;;;;;10.18;51.40;100614.44;1675275;84;21147;-68
2023/10/10 09:31:31;;;;;;;4.10;1.87;;;;;;;10.21;51.23;100603.66;1676044;85;21472;-69
2023/10/10 09:34:06;;;;;;;4.28;1.60;;;;;;;10.26;51.04;100601.72;1676030;84;21653;-67
2023/10/10 09:36:50;;;;;;;4.70;1.80;;;;;;;10.28;50.73;100610.59;1659339;85;21063;-67
2023/10/10 09:39:54;;;;;;;4.95;1.80;;;;;;;10.31;50.90;100609.69;1675089;85;21135;-68
2023/10/10 09:44:49;;;;;;;3.85;1.45;;;;;;;10.53;50.39;100608.41;1662143;85;20157;-69
2023/10/10 10:00:45;;;;;;;12.20;3.20;;;;;;;10.65;47.61;100610.98;1629347;86;21637;-68
2023/10/10 10:06:35;;;;;;;2.22;1.20;;;;;;;10.58;47.51;100614.16;1688162;84;21054;-69
2023/10/10 10:09:31;;;;;;;4.20;1.25;;;;;;;10.57;47.65;100619.31;1692422;85;21075;-68
2023/10/10 10:12:33;;;;;;;5.90;1.90;;;;;;;10.54;47.86;100606.00;1692329;85;21035;-69
2023/10/10 10:15:48;;;;;;;3.00;1.62;;;;;;;10.55;47.77;100607.17;1693407;85;21075;-70
2023/10/10 10:18:44;;;;;;;4.28;1.55;;;;;;;10.59;46.98;100606.27;1693273;85;21059;-68
2023/10/10 10:23:47;;;;;;;4.30;1.65;;;;;;;10.64;46.08;100613.39;1633922;85;21040;-68
2023/10/10 10:26:42;;;;;;;3.50;1.50;;;;;;;10.62;45.77;100615.47;1693376;85;21079;-67
2023/10/10 10:28:56;;;;;;;4.28;1.40;;;;;;;10.64;45.47;100621.61;1686845;85;21067;-71
2023/10/10 10:31:30;;;;;;;2.47;1.20;;;;;;;10.59;45.58;100614.48;1692651;85;21101;-72
2023/10/10 10:34:31;;;;;;;1.85;1.00;;;;;;;10.59;45.98;100629.04;1693300;85;21047;-70
2023/10/10 10:37:13;;;;;;;5.67;1.17;;;;;;;10.66;45.96;100628.59;1692778;85;21011;-71
2023/10/10 10:39:38;;;;;;;2.35;1.20;;;;;;;10.69;45.26;100627.36;1693049;85;21110;-70
2023/10/10 10:42:11;;;;;;;3.15;1.30;;;;;;;10.67;44.84;100625.34;1649498;85;21556;-71
2023/10/10 10:44:46;;;;;;;2.80;1.27;;;;;;;10.67;44.85;100626.70;1693081;85;21083;-72
2023/10/10 10:47:39;;;;;;;4.83;1.90;;;;;;;10.66;44.76;100625.86;1693097;85;21095;-72
2023/10/10 10:50:28;;;;;;;4.78;1.50;;;;;;;10.64;44.90;100614.77;1693294;85;21078;-74
2023/10/10 10:53:04;;;;;;;3.85;1.60;;;;;;;10.60;44.46;100620.30;1692940;85;21075;-73
2023/10/10 10:55:31;;;;;;;3.77;1.40;;;;;;;10.64;44.55;100616.13;1692993;85;21043;-72
2023/10/10 10:58:08;;;;;;;3.47;1.10;;;;;;;10.66;44.64;100625.01;1701782;84;21102;-73
2023/10/10 11:01:00;;;;;;;2.60;0.98;;;;;;;10.67;44.47;100617.96;1705801;84;21538;-73
2023/10/10 11:03:38;;;;;;;3.37;1.10;;;;;;;10.67;44.14;100628.08;1706066;84;21026;-73
2023/10/10 11:06:07;;;;;;;3.52;1.10;;;;;;;10.62;42.83;100623.70;1707164;84;21071;-74
2023/10/10 11:11:24;;;;;;;2.25;1.27;;;;;;;10.51;43.60;100635.16;1706137;84;21074;-74
2023/10/10 11:13:55;;;;;;;2.00;1.20;;;;;;;10.52;43.95;100639.59;1707485;82;21510;-73
2023/10/10 11:16:28;;;;;;;4.90;1.90;;;;;;;10.51;44.09;100638.73;1675974;85;21086;-74
2023/10/10 11:19:11;;;;;;;3.15;1.40;;;;;;;10.47;44.28;100636.05;1675290;84;21039;-73
2023/10/10 11:21:31;;;;;;;3.90;1.50;;;;;;;10.46;44.21;100643.94;1674511;84;21062;-73
2023/10/10 11:24:00;;;;;;;3.25;1.00;;;;;;;10.45;44.32;100644.98;1700114;83;21502;-73
2023/10/10 11:26:34;;;;;;;2.37;0.90;;;;;;;10.44;44.08;100655.61;1652294;85;21075;-72
2023/10/10 11:29:01;;;;;;;3.95;1.00;;;;;;;10.41;44.17;100652.73;1700036;84;21086;-71
2023/10/10 11:31:35;;;;;;;4.78;1.17;;;;;;;10.39;44.41;100642.45;1675833;84;21098;-74
2023/10/10 11:34:26;;;;;;;4.00;1.50;;;;;;;10.42;44.49;100652.21;1676142;85;21486;-73
2023/10/10 11:36:43;;;;;;;2.25;1.20;;;;;;;10.46;44.41;100662.59;1698053;83;21164;-73
2023/10/10 11:39:31;;;;;;;3.70;1.40;;;;;;;10.51;44.24;100659.81;1700013;84;21078;-73
2023/10/10 11:42:04;;;;;;;7.75;1.30;;;;;;;10.57;45.03;100655.78;1675900;85;21070;-71
2023/10/10 11:44:33;;;;;;;2.90;1.20;;;;;;;10.67;44.70;100661.81;1700084;84;21130;-71
2023/10/10 11:47:07;;;;;;;3.50;1.10;;;;;;;10.73;44.19;100658.82;1675957;84;21579;-72
2023/10/10 11:49:34;;;;;;;1.67;1.22;;;;;;;10.76;43.55;100661.17;1700410;84;21054;-72
2023/10/10 11:52:03;;;;;;;2.27;0.78;;;;;;;10.78;43.12;100653.09;1676050;85;21052;-72
2023/10/10 11:54:33;;;;;;;3.87;1.07;;;;;;;10.81;42.92;100662.82;1700036;83;21585;-73
2023/10/10 11:57:02;;;;;;;6.22;2.80;;;;;;;10.81;42.43;100660.08;1675285;84;21058;-71
2023/10/10 11:59:32;;;;;;;2.83;1.30;;;;;;;10.81;42.34;100658.70;1702041;84;21011;-71
2023/10/10 12:02:07;;;;;;;4.30;1.30;;;;;;;10.82;42.53;100653.55;1702041;84;21536;-70
2023/10/10 12:04:38;;;;;;;2.27;1.15;;;;;;;10.84;42.59;100658.84;1703618;84;21030;-69
2023/10/10 12:07:07;;;;;;;2.50;1.30;;;;;;;10.86;42.70;100664.46;1714295;82;21572;-69
2023/10/10 12:09:38;;;;;;;3.33;1.17;;;;;;;10.87;42.91;100662.05;1714543;84;21074;-71
2023/10/10 12:12:06;;;;;;;1.90;0.75;;;;;;;10.89;42.80;100664.07;1714441;82;21049;-71
2023/10/10 12:14:35;;;;;;;3.45;1.25;;;;;;;10.90;42.93;100654.80;1714482;84;21069;-73
2023/10/10 12:17:07;;;;;;;3.42;1.10;;;;;;;10.89;42.86;100655.84;1714372;82;21038;-75
2023/10/10 12:19:37;;;;;;;4.67;1.20;;;;;;;10.89;42.88;100668.70;1714257;82;21536;-72
2023/10/10 12:22:10;;;;;;;4.12;1.10;;;;;;;10.87;42.88;100663.41;1714473;84;21511;-72
2023/10/10 12:24:39;;;;;;;3.08;1.00;;;;;;;10.86;42.92;100669.09;1714716;84;21010;-71
2023/10/10 12:27:09;;;;;;;1.80;0.80;;;;;;;10.85;42.80;100668.77;1686552;84;21014;-72
2023/10/10 12:29:39;;;;;;;3.85;1.25;;;;;;;10.84;42.78;100661.58;1714463;82;21038;-72
2023/10/10 12:32:15;;;;;;;5.75;1.25;;;;;;;10.87;42.85;100674.37;1704197;83;21110;-74
2023/10/10 12:34:45;;;;;;;3.87;1.50;;;;;;;10.89;42.72;100667.33;1683569;84;21114;-68
2023/10/10 12:37:17;;;;;;;3.65;1.55;;;;;;;10.95;42.58;100672.05;1701883;84;21047;-70
2023/10/10 12:39:47;;;;;;;4.15;1.60;;;;;;;10.97;41.97;100674.07;1702270;84;21059;-70
2023/10/10 12:42:16;;;;;;;4.35;1.35;;;;;;;10.98;42.13;100673.88;1701949;83;21035;-69
2023/10/10 12:44:47;;;;;;;2.33;0.90;;;;;;;11.00;42.04;100679.16;1701870;83;21031;-68
2023/10/10 12:47:17;;;;;;;4.20;1.10;;;;;;;11.01;41.65;100683.09;1701933;83;21044;-70
2023/10/10 12:49:47;;;;;;;3.58;1.00;;;;;;;10.98;41.75;100689.48;1702281;83;21031;-69
2023/10/10 12:52:17;;;;;;;2.70;1.10;;;;;;;10.96;41.62;100683.34;1702144;84;21070;-71
2023/10/10 12:54:56;;;;;;;15.90;5.85;;;;;;;10.94;41.79;100682.68;1701946;84;21027;-71
2023/10/10 12:57:17;;;;;;;2.95;0.80;;;;;;;10.93;42.56;100679.61;1703583;83;21089;-68
2023/10/10 12:59:46;;;;;;;2.58;0.72;;;;;;;10.93;42.57;100691.95;1707700;84;21020;-70
2023/10/10 13:02:16;;;;;;;3.30;0.80;;;;;;;10.92;42.48;100693.84;1727813;83;21083;-69
2023/10/10 13:04:51;;;;;;;1.90;0.80;;;;;;;10.93;42.56;100696.06;1707253;84;21091;-71
2023/10/10 13:07:34;;;;;;;4.40;0.80;;;;;;;10.91;42.66;100694.88;1705403;83;21103;-71
2023/10/10 13:09:58;;;;;;;4.12;1.17;;;;;;;10.93;42.90;100698.80;1704932;84;21188;-69
2023/10/10 13:12:32;;;;;;;1.87;0.90;;;;;;;10.93;43.04;100710.62;1705461;84;21126;-69
2023/10/10 13:15:16;;;;;;;2.72;1.22;;;;;;;10.95;42.94;100715.91;1705639;84;21040;-69
2023/10/10 13:17:50;;;;;;;1.95;0.80;;;;;;;10.95;44.48;100707.16;1704671;84;21019;-70
2023/10/10 13:20:11;;;;;;;3.80;1.07;;;;;;;10.95;42.84;100713.17;1704166;84;21484;-69
2023/10/10 13:22:39;;;;;;;1.50;0.80;;;;;;;10.91;42.42;100715.97;1687936;85;21055;-69
2023/10/10 13:25:10;;;;;;;3.20;0.90;;;;;;;10.86;42.50;100719.28;1705862;84;21115;-69
2023/10/10 13:27:39;;;;;;;2.27;1.07;;;;;;;10.82;42.43;100708.37;1687908;85;21051;-70
2023/10/10 13:30:09;;;;;;;3.42;1.10;;;;;;;10.79;42.47;100708.23;1705579;84;21090;-70
2023/10/10 13:32:37;;;;;;;1.42;0.90;;;;;;;10.77;42.53;100705.36;1634785;88;21530;-69
2023/10/10 13:35:08;;;;;;;2.22;0.95;;;;;;;10.76;42.81;100703.14;1699014;84;21108;-67
2023/10/10 13:37:43;;;;;;;2.98;1.67;;;;;;;10.77;42.91;100709.47;1699159;84;21093;-68
2023/10/10 13:40:20;;;;;;;4.78;1.37;;;;;;;10.79;43.19;100712.87;1698966;84;21101;-69
2023/10/10 13:42:42;;;;;;;3.87;1.17;;;;;;;10.78;42.76;100715.28;1697716;84;21058;-70
2023/10/10 13:45:18;;;;;;;3.15;1.00;;;;;;;10.70;42.61;100701.69;1679497;85;21087;-68
2023/10/10 13:47:47;;;;;;;3.15;0.85;;;;;;;10.64;42.80;100709.30;1679172;85;21087;-69
2023/10/10 13:53:03;;;;;;;1.80;0.80;;;;;;;10.58;43.12;100712.28;1698965;84;21050;-70
2023/10/10 13:55:34;;;;;;;3.10;1.30;;;;;;;10.62;43.51;100716.86;1699119;84;21114;-70
2023/10/10 13:58:07;;;;;;;2.80;1.82;;;;;;;10.71;43.64;100716.56;1681926;85;21144;-70
2023/10/10 14:00:36;;;;;;;4.72;1.17;;;;;;;10.75;43.26;100719.25;1688729;85;21086;-71
2023/10/10 14:03:06;;;;;;;2.08;1.02;;;;;;;10.73;43.08;100725.97;1688854;85;21082;-71
2023/10/10 14:05:37;;;;;;;1.80;0.80;;;;;;;10.69;43.13;100720.54;1704080;83;21034;-69
2023/10/10 14:08:07;;;;;;;2.60;1.07;;;;;;;10.66;43.21;100735.99;1717344;83;21482;-69
2023/10/10 14:10:38;;;;;;;1.65;0.80;;;;;;;10.61;43.25;100731.60;1717437;83;21543;-69
2023/10/10 14:13:19;;;;;;;2.33;0.70;;;;;;;10.54;43.48;100739.73;1717565;83;21041;-70
2023/10/10 14:16:00;;;;;;;0.80;0.60;;;;;;;10.48;43.58;100752.30;1717513;83;21030;-70
2023/10/10 14:18:52;;;;;;;4.00;0.78;;;;;;;10.43;43.58;100749.27;1717402;83;21494;-68
2023/10/10 14:21:08;;;;;;;1.22;0.70;;;;;;;10.39;43.40;100757.50;1711789;83;21058;-71
2023/10/10 14:23:38;;;;;;;1.57;0.80;;;;;;;10.32;43.51;100755.70;1717408;83;21062;-70
2023/10/10 14:26:26;;;;;;;1.90;0.70;;;;;;;10.26;43.74;100764.15;1717654;83;21044;-72
2023/10/10 14:28:52;;;;;;;1.60;0.78;;;;;;;10.22;43.57;100762.82;1717176;83;21022;-72
2023/10/10 14:31:27;;;;;;;3.42;0.70;;;;;;;10.18;43.83;100766.94;1717331;83;21142;-71
2023/10/10 14:34:00;;;;;;;1.67;0.78;;;;;;;10.15;44.08;100764.05;1717564;83;21483;-73
2023/10/10 14:36:31;;;;;;;1.60;0.90;;;;;;;10.11;44.17;100767.34;1717411;83;21047;-71
2023/10/10 14:55:45;;;;;;;1.60;0.95;;;;;;;9.94;44.64;100794.02;1651133;85;21035;-71
2023/10/10 14:58:21;;;;;;;4.40;1.67;;;;;;;9.88;44.83;100793.39;1650327;86;21540;-70
2023/10/10 15:00:56;;;;;;;3.42;1.98;;;;;;;9.85;45.10;100796.49;1658533;86;21042;-69
2023/10/10 15:03:25;;;;;;;3.22;1.27;;;;;;;9.82;45.27;100804.55;1677555;85;21101;-69
2023/10/10 15:05:53;;;;;;;3.52;2.00;;;;;;;9.78;45.56;100808.69;1658574;86;21505;-71